createdAt,value
2019-02-23T00:02:02.854Z,7.10
2019-02-23T00:07:28.075Z,7.13
2019-02-23T00:12:52.468Z,7.30
2019-02-23T00:18:16.295Z,7.13
2019-02-23T00:23:40.185Z,6.93
2019-02-23T00:29:04.922Z,7.33
2019-02-23T00:34:29.641Z,7.20
2019-02-23T00:39:54.087Z,8.13
2019-02-23T00:45:18.544Z,7.27
2019-02-23T00:50:43.106Z,7.90
2019-02-23T00:56:06.675Z,7.40
2019-02-23T01:01:32.402Z,6.83
2019-02-23T01:06:56.283Z,7.70
2019-02-23T01:12:20.879Z,7.83
2019-02-23T01:17:44.807Z,7.20
2019-02-23T01:23:09.166Z,7.80
2019-02-23T01:28:33.819Z,7.97
2019-02-23T01:33:58.442Z,7.27
2019-02-23T01:39:23.433Z,9.00
2019-02-23T01:44:47.164Z,7.67
2019-02-23T01:50:12.230Z,7.27
2019-02-23T01:55:35.839Z,8.60
2019-02-23T02:01:00.550Z,7.87
2019-02-23T02:06:24.339Z,6.97
2019-02-23T02:11:49.045Z,7.40
2019-02-23T02:17:13.564Z,8.07
2019-02-23T02:22:38.273Z,8.83
2019-02-23T02:28:02.085Z,7.93
2019-02-23T02:33:26.736Z,8.43
2019-02-23T02:38:51.175Z,7.93
2019-02-23T02:44:16.303Z,8.03
2019-02-23T02:49:41.024Z,9.40
2019-02-23T02:55:06.128Z,9.07
2019-02-23T03:00:31.063Z,7.90
2019-02-23T03:05:55.055Z,7.83
2019-02-23T03:11:18.979Z,8.13
2019-02-23T03:16:43.669Z,8.27
2019-02-23T03:22:08.098Z,8.23
2019-02-23T03:27:32.051Z,10.03
2019-02-23T03:32:56.119Z,8.33
2019-02-23T03:38:19.977Z,7.97
2019-02-23T03:43:44.801Z,8.80
2019-02-23T03:49:09.646Z,9.63
2019-02-23T03:54:34.755Z,9.17
2019-02-23T03:59:59.994Z,9.30
2019-02-23T04:05:24.962Z,9.53
2019-02-23T04:10:49.470Z,9.77
2019-02-23T04:16:13.836Z,9.60
2019-02-23T04:21:38.850Z,9.30
2019-02-23T04:27:03.035Z,10.47
2019-02-23T04:32:27.756Z,10.87
2019-02-23T04:37:52.226Z,10.87
2019-02-23T04:43:17.260Z,10.13
2019-02-23T04:48:41.887Z,11.03
2019-02-23T04:54:05.757Z,11.23
2019-02-23T04:59:30.384Z,12.20
2019-02-23T05:04:54.809Z,10.50
2019-02-23T05:10:19.614Z,11.23
2019-02-23T05:15:44.493Z,10.93
2019-02-23T05:21:09.185Z,11.40
2019-02-23T05:26:33.212Z,11.53
2019-02-23T05:31:58.348Z,12.07
2019-02-23T05:37:22.211Z,11.10
2019-02-23T05:42:46.087Z,11.80
2019-02-23T05:48:10.866Z,11.63
2019-02-23T05:53:34.557Z,12.07
2019-02-23T05:58:59.016Z,12.20
2019-02-23T06:04:23.733Z,11.90
2019-02-23T06:09:48.456Z,12.80
2019-02-23T06:15:13.411Z,10.97
2019-02-23T06:20:37.682Z,11.83
2019-02-23T06:26:02.402Z,11.30
2019-02-23T06:31:26.678Z,10.37
2019-02-23T06:36:50.891Z,11.63
2019-02-23T06:42:15.878Z,12.40
2019-02-23T06:47:40.312Z,11.50
2019-02-23T06:53:04.810Z,12.80
2019-02-23T06:58:29.466Z,11.63
2019-02-23T07:03:53.363Z,12.10
2019-02-23T07:09:17.021Z,12.60
2019-02-23T07:14:41.662Z,12.80
2019-02-23T07:20:06.644Z,11.50
2019-02-23T07:25:30.995Z,11.87
2019-02-23T07:30:55.549Z,10.23
2019-02-23T07:36:20.763Z,12.70
2019-02-23T07:41:45.594Z,11.60
2019-02-23T07:47:09.541Z,13.10
2019-02-23T07:52:33.600Z,12.90
2019-02-23T07:57:58.385Z,11.87
2019-02-23T08:03:22.844Z,11.03
2019-02-23T08:08:47.680Z,10.50
2019-02-23T08:14:11.551Z,12.83
2019-02-23T08:19:35.806Z,11.93
2019-02-23T08:24:59.636Z,11.27
2019-02-23T08:30:23.461Z,11.03
2019-02-23T08:35:47.443Z,11.10
2019-02-23T08:41:11.771Z,10.77
2019-02-23T08:46:35.631Z,11.03
2019-02-23T08:51:59.895Z,10.20
2019-02-23T08:57:24.515Z,10.07
2019-02-23T09:02:48.943Z,9.80
2019-02-23T09:08:12.655Z,13.07
2019-02-23T09:13:36.691Z,8.20
2019-02-23T09:19:01.380Z,7.73
2019-02-23T09:24:26.011Z,8.23
2019-02-23T09:29:50.431Z,8.70
2019-02-23T09:35:15.090Z,8.10
2019-02-23T09:40:38.933Z,8.70
2019-02-23T09:46:03.030Z,7.83
2019-02-23T09:51:28.431Z,8.00
2019-02-23T09:56:53.889Z,8.63
2019-02-23T10:02:18.372Z,7.67
2019-02-23T10:07:43.080Z,8.27
2019-02-23T10:13:06.862Z,7.23
2019-02-23T10:18:52.997Z,8.20
2019-02-23T10:24:42.657Z,8.47
2019-02-23T10:30:10.860Z,8.00
2019-02-23T10:35:40.652Z,7.77
2019-02-23T10:41:07.896Z,7.30
2019-02-23T10:46:37.729Z,7.50
2019-02-23T10:52:28.071Z,7.87
2019-02-23T10:57:53.477Z,6.40
2019-02-23T11:03:18.005Z,7.33
2019-02-23T11:08:42.852Z,7.20
2019-02-23T11:14:07.739Z,7.20
2019-02-23T11:19:31.533Z,7.73
2019-02-23T11:24:56.085Z,7.90
2019-02-23T11:30:20.527Z,8.60
2019-02-23T11:35:45.687Z,8.17
2019-02-23T11:41:11.593Z,7.33
2019-02-23T11:46:36.092Z,7.40
2019-02-23T11:52:00.573Z,7.43
2019-02-23T11:57:25.141Z,7.97
2019-02-23T12:02:52.436Z,8.13
2019-02-23T12:08:15.154Z,7.87
2019-02-23T12:13:39.694Z,8.07
2019-02-23T12:19:03.638Z,9.27
2019-02-23T12:24:28.106Z,8.47
2019-02-23T12:29:52.824Z,10.30
2019-02-23T12:35:18.276Z,7.60
2019-02-23T12:40:42.794Z,10.53
2019-02-23T12:46:06.713Z,8.20
2019-02-23T12:51:30.936Z,9.30
2019-02-23T12:56:54.794Z,8.07
2019-02-23T13:02:19.534Z,8.83
2019-02-23T13:07:44.071Z,8.30
2019-02-23T13:13:37.454Z,7.20
2019-02-23T13:19:39.798Z,8.63
2019-02-23T13:25:35.075Z,7.10
2019-02-23T13:31:23.792Z,7.23
2019-02-23T13:37:23.488Z,6.73
2019-02-23T13:43:10.731Z,6.37
2019-02-23T13:49:09.144Z,7.40
2019-02-23T13:55:17.727Z,7.30
2019-02-23T14:01:17.979Z,7.50
2019-02-23T14:07:08.349Z,7.20
2019-02-23T14:12:41.709Z,7.43
2019-02-23T14:18:28.671Z,7.20
2019-02-23T14:24:10.413Z,5.60
2019-02-23T14:29:48.710Z,6.13
2019-02-23T14:35:46.218Z,6.17
2019-02-23T14:41:25.834Z,7.50
2019-02-23T14:47:25.680Z,5.87
2019-02-23T14:53:34.182Z,6.07
2019-02-23T14:59:13.484Z,6.47
2019-02-23T15:05:23.395Z,6.83
2019-02-23T15:11:10.420Z,9.63
2019-02-23T15:17:09.905Z,7.83
2019-02-23T15:22:52.313Z,6.50
2019-02-23T15:28:53.350Z,7.90
2019-02-23T15:34:55.483Z,9.10
2019-02-23T15:40:37.845Z,9.27
2019-02-23T15:46:32.386Z,8.97
2019-02-23T15:51:57.645Z,8.90
2019-02-23T16:02:58.014Z,9.20
2019-02-23T16:08:22.092Z,9.57
2019-02-23T16:13:46.622Z,9.57
2019-02-23T16:19:10.901Z,9.97
2019-02-23T16:24:35.650Z,9.47
2019-02-23T16:29:59.925Z,9.87
2019-02-23T16:35:24.869Z,9.67
2019-02-23T16:40:50.476Z,8.50
2019-02-23T16:46:15.178Z,8.83
2019-02-23T16:51:39.835Z,9.93
2019-02-23T16:57:04.951Z,8.70
2019-02-23T17:02:28.931Z,9.27
2019-02-23T17:07:52.919Z,8.37
2019-02-23T17:13:18.533Z,8.30
2019-02-23T17:18:43.756Z,7.93
2019-02-23T17:24:07.600Z,9.10
2019-02-23T17:29:31.289Z,9.07
2019-02-23T17:34:55.489Z,9.07
2019-02-23T17:40:19.636Z,8.97
2019-02-23T17:45:43.651Z,9.03
2019-02-23T17:51:08.402Z,8.80
2019-02-23T17:56:33.131Z,8.60
2019-02-23T18:01:56.947Z,10.87
2019-02-23T18:07:20.778Z,10.77
2019-02-23T18:12:45.455Z,10.07
2019-02-23T18:18:10.198Z,11.10
2019-02-23T18:23:33.811Z,10.53
2019-02-23T18:28:58.883Z,11.80
2019-02-23T18:34:23.383Z,15.43
2019-02-23T18:39:47.485Z,10.73
2019-02-23T18:45:13.179Z,11.50
2019-02-23T18:50:38.335Z,11.77
2019-02-23T18:56:03.997Z,11.93
2019-02-23T19:01:29.047Z,12.73
2019-02-23T19:06:53.594Z,14.60
2019-02-23T19:12:18.274Z,15.37
2019-02-23T19:17:42.007Z,16.03
2019-02-23T19:23:06.774Z,15.20
2019-02-23T19:28:31.139Z,15.57
2019-02-23T19:33:55.015Z,15.77
2019-02-23T19:39:18.987Z,16.03
2019-02-23T19:44:42.784Z,18.33
2019-02-23T19:50:10.794Z,17.63
2019-02-23T19:55:34.775Z,16.10
2019-02-23T20:00:59.103Z,15.90
2019-02-23T20:06:23.070Z,16.40
2019-02-23T20:11:48.161Z,14.60
2019-02-23T20:23:35.014Z,15.33
2019-02-23T20:28:58.766Z,18.70
2019-02-23T20:34:23.630Z,16.40
2019-02-23T20:39:48.197Z,12.97
2019-02-23T20:45:12.191Z,13.63
2019-02-23T20:50:37.139Z,15.30
2019-02-23T20:56:01.632Z,21.90
2019-02-23T21:01:26.143Z,20.23
2019-02-23T21:06:50.114Z,17.43
2019-02-23T21:12:14.820Z,19.80
2019-02-23T21:17:39.454Z,19.27
2019-02-23T21:23:04.319Z,16.20
2019-02-23T21:28:29.079Z,15.60
2019-02-23T21:33:53.935Z,19.00
2019-02-23T21:39:17.995Z,19.90
2019-02-23T21:44:41.749Z,21.80
2019-02-23T21:50:05.818Z,19.30
2019-02-23T21:55:29.568Z,21.47
2019-02-23T22:00:54.321Z,20.83
2019-02-23T22:06:19.553Z,19.80
2019-02-23T22:11:43.298Z,19.30
2019-02-23T22:17:08.234Z,21.97
2019-02-23T22:22:31.894Z,22.03
2019-02-23T22:27:55.632Z,19.40
2019-02-23T22:33:20.431Z,20.00
2019-02-23T22:38:45.357Z,19.97
2019-02-23T22:44:10.761Z,21.40
2019-02-23T22:49:35.291Z,20.53
2019-02-23T22:54:59.844Z,20.80
2019-02-23T23:00:28.244Z,19.97
2019-02-23T23:05:54.338Z,18.80
2019-02-23T23:11:19.840Z,20.63
2019-02-23T23:16:44.756Z,21.73
2019-02-23T23:22:09.328Z,21.63
2019-02-23T23:27:33.510Z,22.10
2019-02-23T23:32:57.127Z,19.40
2019-02-23T23:38:21.736Z,22.87
2019-02-23T23:43:45.785Z,22.93
2019-02-23T23:49:10.539Z,22.50
2019-02-23T23:54:34.603Z,20.57
2019-02-23T23:59:59.039Z,21.13
